createdAt,value
2022-08-06T00:00:03.349Z,21.05
2022-08-06T00:02:51.489Z,21.08
2022-08-06T00:05:53.765Z,20.77
2022-08-06T00:08:55.696Z,20.90
2022-08-06T00:12:10.659Z,20.87
2022-08-06T00:15:14.764Z,20.97
2022-08-06T00:18:16.778Z,20.81
2022-08-06T00:21:40.874Z,20.76
2022-08-06T00:24:42.141Z,20.48
2022-08-06T00:27:44.287Z,20.50
2022-08-06T00:30:54.410Z,20.53
2022-08-06T00:34:02.801Z,20.38
2022-08-06T00:37:04.696Z,20.51
2022-08-06T00:40:07.134Z,20.42
2022-08-06T00:43:09.688Z,20.50
2022-08-06T00:46:16.755Z,20.37
2022-08-06T00:49:48.358Z,20.31
2022-08-06T00:52:40.637Z,20.41
2022-08-06T00:55:59.837Z,20.35
2022-08-06T00:59:05.452Z,20.19
2022-08-06T01:02:14.443Z,20.12
2022-08-06T01:05:34.074Z,20.01
2022-08-06T01:08:41.551Z,20.42
2022-08-06T01:11:43.801Z,20.49
2022-08-06T01:15:02.170Z,20.37
2022-08-06T01:18:11.421Z,20.38
2022-08-06T01:21:59.226Z,20.27
2022-08-06T01:25:04.100Z,20.20
2022-08-06T01:28:08.346Z,20.10
2022-08-06T01:31:16.154Z,19.93
2022-08-06T01:34:35.071Z,20.36
2022-08-06T01:38:06.855Z,20.14
2022-08-06T01:41:55.099Z,20.09
2022-08-06T01:45:03.150Z,19.87
2022-08-06T01:48:11.107Z,19.54
2022-08-06T01:51:17.176Z,19.59
2022-08-06T01:54:24.992Z,19.98
2022-08-06T01:58:07.741Z,20.28
2022-08-06T02:01:01.201Z,20.12
2022-08-06T02:04:04.749Z,19.61
2022-08-06T02:08:04.118Z,19.64
2022-08-06T02:10:35.366Z,19.86
2022-08-06T02:13:43.402Z,19.65
2022-08-06T02:16:50.724Z,19.99
2022-08-06T02:20:11.397Z,20.05
2022-08-06T02:23:17.752Z,19.86
2022-08-06T02:26:25.209Z,19.86
2022-08-06T02:29:47.306Z,19.97
2022-08-06T02:32:50.592Z,19.67
2022-08-06T02:36:02.293Z,19.44
2022-08-06T02:39:17.228Z,19.71
2022-08-06T02:42:43.953Z,19.86
2022-08-06T02:45:59.399Z,19.38
2022-08-06T02:49:05.717Z,19.32
2022-08-06T02:52:37.204Z,19.32
2022-08-06T02:55:45.861Z,19.44
2022-08-06T02:58:56.950Z,19.39
2022-08-06T03:02:05.349Z,19.23
2022-08-06T03:05:08.077Z,18.84
2022-08-06T03:08:15.786Z,19.02
2022-08-06T03:11:19.339Z,18.70
2022-08-06T03:15:03.356Z,19.00
2022-08-06T03:17:48.040Z,18.73
2022-08-06T03:20:52.802Z,18.84
2022-08-06T03:23:55.816Z,18.46
2022-08-06T03:27:02.054Z,18.33
2022-08-06T03:30:04.669Z,18.50
2022-08-06T03:33:29.789Z,18.41
2022-08-06T03:36:36.469Z,18.34
2022-08-06T03:39:47.331Z,18.59
2022-08-06T03:42:55.887Z,18.68
2022-08-06T03:46:03.444Z,18.60
2022-08-06T03:49:07.213Z,18.64
2022-08-06T03:52:14.771Z,18.56
2022-08-06T03:55:23.898Z,18.89
2022-08-06T03:58:33.070Z,18.84
2022-08-06T04:01:43.326Z,19.01
2022-08-06T04:04:52.558Z,18.96
2022-08-06T04:07:58.013Z,19.00
2022-08-06T04:11:01.520Z,19.25
2022-08-06T04:14:07.643Z,19.22
2022-08-06T04:17:10.666Z,19.45
2022-08-06T04:20:16.447Z,19.30
2022-08-06T04:23:38.009Z,19.56
2022-08-06T04:26:43.731Z,19.61
2022-08-06T04:29:56.405Z,19.75
2022-08-06T04:33:03.695Z,19.45
2022-08-06T04:36:23.750Z,19.55
2022-08-06T04:39:38.349Z,19.74
2022-08-06T04:42:51.399Z,19.95
2022-08-06T04:46:16.569Z,20.21
2022-08-06T04:49:19.010Z,20.36
2022-08-06T04:52:35.440Z,20.48
2022-08-06T04:55:41.141Z,20.57
2022-08-06T04:58:42.773Z,20.97
2022-08-06T05:01:57.174Z,21.08
2022-08-06T05:05:02.774Z,21.03
2022-08-06T05:08:06.794Z,21.29
2022-08-06T05:11:26.042Z,21.55
2022-08-06T05:14:38.202Z,21.78
2022-08-06T05:17:48.510Z,21.97
2022-08-06T05:20:54.344Z,22.17
2022-08-06T05:23:57.789Z,22.43
2022-08-06T05:26:59.809Z,22.64
2022-08-06T05:30:05.348Z,23.19
2022-08-06T05:33:07.341Z,23.32
2022-08-06T05:36:19.333Z,23.60
2022-08-06T05:39:56.872Z,23.84
2022-08-06T05:42:43.589Z,24.12
2022-08-06T05:46:05.787Z,24.24
2022-08-06T05:49:55.602Z,24.38
2022-08-06T05:52:56.278Z,24.60
2022-08-06T05:56:05.746Z,24.83
2022-08-06T05:59:37.374Z,25.07
2022-08-06T06:02:44.363Z,24.81
2022-08-06T06:06:04.937Z,25.17
2022-08-06T06:09:10.903Z,25.26
2022-08-06T06:12:13.728Z,25.39
2022-08-06T06:16:00.488Z,25.79
2022-08-06T06:19:10.763Z,26.11
2022-08-06T06:22:27.410Z,26.17
2022-08-06T06:25:43.457Z,26.19
2022-08-06T06:29:11.274Z,26.50
2022-08-06T06:32:30.333Z,26.65
2022-08-06T06:35:42.634Z,26.89
2022-08-06T06:39:19.794Z,27.03
2022-08-06T06:42:33.471Z,27.31
2022-08-06T06:46:07.648Z,27.23
2022-08-06T06:49:59.825Z,27.61
2022-08-06T06:53:04.789Z,27.78
2022-08-06T06:56:17.956Z,27.86
2022-08-06T07:00:00.995Z,28.16
2022-08-06T07:02:54.168Z,28.29
2022-08-06T07:06:04.080Z,28.41
2022-08-06T07:09:14.999Z,28.37
2022-08-06T07:12:20.703Z,28.61
2022-08-06T07:15:24.596Z,28.80
2022-08-06T07:18:32.525Z,29.02
2022-08-06T07:21:37.987Z,29.25
2022-08-06T07:24:46.820Z,29.37
2022-08-06T07:27:55.408Z,29.36
2022-08-06T07:31:09.242Z,29.54
2022-08-06T07:34:11.918Z,29.80
2022-08-06T07:37:22.376Z,30.04
2022-08-06T07:40:31.793Z,30.22
2022-08-06T07:43:44.781Z,30.48
2022-08-06T07:46:56.962Z,30.75
2022-08-06T07:50:01.862Z,30.95
2022-08-06T07:53:04.587Z,31.47
2022-08-06T07:56:09.788Z,31.78
2022-08-06T07:59:14.886Z,31.95
2022-08-06T08:02:17.889Z,32.38
2022-08-06T08:06:00.378Z,32.80
2022-08-06T08:09:28.892Z,33.43
2022-08-06T08:12:39.014Z,34.04
2022-08-06T08:15:43.672Z,34.21
2022-08-06T08:18:45.644Z,35.01
2022-08-06T08:21:47.321Z,35.22
2022-08-06T08:24:53.912Z,35.26
2022-08-06T08:27:56.834Z,35.31
2022-08-06T08:31:11.096Z,35.92
2022-08-06T08:34:27.306Z,37.41
2022-08-06T08:37:31.794Z,37.81
2022-08-06T08:40:36.249Z,38.48
2022-08-06T08:43:59.992Z,38.02
2022-08-06T08:47:12.478Z,37.24
2022-08-06T08:50:18.489Z,38.94
2022-08-06T08:53:45.463Z,38.75
2022-08-06T08:57:08.282Z,39.05
2022-08-06T09:00:12.549Z,38.84
2022-08-06T09:03:24.581Z,39.90
2022-08-06T09:06:28.934Z,41.11
2022-08-06T09:09:36.112Z,41.56
2022-08-06T09:12:44.839Z,43.02
2022-08-06T09:15:49.313Z,43.54
2022-08-06T09:18:54.480Z,41.24
2022-08-06T09:21:57.960Z,39.97
2022-08-06T09:25:07.666Z,43.65
2022-08-06T09:28:12.138Z,42.91
2022-08-06T09:31:31.215Z,43.45
2022-08-06T09:34:41.120Z,42.57
2022-08-06T09:37:53.365Z,44.44
2022-08-06T09:41:14.983Z,46.11
2022-08-06T09:44:37.804Z,45.15
2022-08-06T09:47:40.508Z,45.75
2022-08-06T09:50:44.873Z,47.38
2022-08-06T09:54:05.844Z,47.21
2022-08-06T09:57:16.463Z,43.64
2022-08-06T10:00:30.611Z,44.67
2022-08-06T10:04:02.087Z,45.27
2022-08-06T10:07:08.048Z,43.74
2022-08-06T10:10:10.238Z,44.98
2022-08-06T10:13:39.194Z,43.93
2022-08-06T10:17:14.059Z,45.09
2022-08-06T10:20:19.178Z,45.34
2022-08-06T10:23:21.512Z,46.90
2022-08-06T10:26:27.849Z,45.55
2022-08-06T10:29:34.030Z,45.08
2022-08-06T10:32:52.820Z,46.08
2022-08-06T10:36:04.048Z,45.69
2022-08-06T10:40:07.893Z,44.38
2022-08-06T10:42:30.281Z,41.64
2022-08-06T10:45:48.614Z,39.46
2022-08-06T10:50:19.905Z,39.37
2022-08-06T10:52:17.302Z,38.86
2022-08-06T10:55:19.022Z,39.65
2022-08-06T10:58:23.074Z,39.63
2022-08-06T11:01:55.716Z,40.18
2022-08-06T11:05:00.494Z,39.65
2022-08-06T11:08:40.906Z,38.26
2022-08-06T11:12:17.190Z,38.55
2022-08-06T11:15:22.553Z,38.04
2022-08-06T11:18:28.279Z,37.58
2022-08-06T11:22:02.741Z,37.33
2022-08-06T11:25:26.345Z,37.94
2022-08-06T11:28:32.214Z,37.87
2022-08-06T11:31:44.394Z,37.80
2022-08-06T11:34:58.374Z,37.31
2022-08-06T11:38:25.162Z,37.62
2022-08-06T11:41:54.548Z,37.61
2022-08-06T11:45:06.251Z,37.34
2022-08-06T11:48:26.830Z,37.38
2022-08-06T11:52:06.370Z,37.51
2022-08-06T11:55:23.141Z,37.70
2022-08-06T11:58:25.772Z,37.38
2022-08-06T12:01:47.883Z,37.60
2022-08-06T12:04:50.755Z,37.94
2022-08-06T12:08:38.494Z,37.83
2022-08-06T12:11:38.632Z,38.24
2022-08-06T12:14:49.195Z,38.05
2022-08-06T12:18:19.826Z,38.47
2022-08-06T12:21:18.950Z,38.27
2022-08-06T12:24:24.890Z,38.32
2022-08-06T12:27:35.574Z,38.31
2022-08-06T12:30:52.085Z,38.96
2022-08-06T12:33:55.585Z,39.03
2022-08-06T12:37:00.155Z,38.67
2022-08-06T12:40:22.385Z,39.56
2022-08-06T12:43:43.205Z,39.67
2022-08-06T12:46:47.247Z,40.36
2022-08-06T12:49:55.789Z,40.37
2022-08-06T12:53:15.402Z,41.18
2022-08-06T12:56:31.390Z,40.66
2022-08-06T12:59:40.347Z,41.62
2022-08-06T13:02:48.272Z,42.56
2022-08-06T13:05:52.955Z,44.11
2022-08-06T13:09:02.054Z,45.42
2022-08-06T13:12:29.081Z,47.32
2022-08-06T13:15:46.341Z,48.82
2022-08-06T13:19:15.959Z,49.41
2022-08-06T13:22:23.051Z,53.02
2022-08-06T13:25:48.716Z,52.59
2022-08-06T13:30:31.465Z,50.86
2022-08-06T13:32:34.073Z,48.55
2022-08-06T13:35:38.860Z,47.45
2022-08-06T13:38:41.942Z,47.09
2022-08-06T13:41:56.077Z,48.62
2022-08-06T13:44:58.895Z,47.96
2022-08-06T13:48:17.536Z,49.12
2022-08-06T13:51:27.904Z,47.81
2022-08-06T13:54:36.075Z,44.21
2022-08-06T13:57:44.080Z,40.77
2022-08-06T14:00:47.734Z,39.96
2022-08-06T14:03:50.838Z,39.07
2022-08-06T14:06:54.352Z,37.92
2022-08-06T14:10:07.632Z,37.45
2022-08-06T14:13:17.897Z,37.13
2022-08-06T14:16:22.659Z,36.43
2022-08-06T14:20:17.087Z,36.48
2022-08-06T14:22:49.838Z,36.40
2022-08-06T14:25:52.547Z,35.84
2022-08-06T14:30:25.889Z,35.48
2022-08-06T14:32:26.807Z,35.36
2022-08-06T14:35:29.328Z,35.29
2022-08-06T14:38:42.545Z,35.37
2022-08-06T14:42:03.375Z,35.16
2022-08-06T14:45:07.612Z,34.94
2022-08-06T14:48:09.655Z,35.02
2022-08-06T14:51:12.739Z,35.05
2022-08-06T14:54:16.130Z,34.91
2022-08-06T14:57:19.986Z,34.67
2022-08-06T15:00:41.639Z,34.89
2022-08-06T15:03:45.741Z,34.81
2022-08-06T15:06:53.743Z,34.82
2022-08-06T15:10:04.021Z,34.51
2022-08-06T15:13:08.571Z,34.36
2022-08-06T15:16:40.642Z,34.33
2022-08-06T15:19:41.734Z,34.15
2022-08-06T15:22:46.120Z,33.64
2022-08-06T15:26:02.136Z,33.71
2022-08-06T15:29:16.622Z,33.39
2022-08-06T15:32:18.803Z,33.36
2022-08-06T15:35:21.249Z,33.12
2022-08-06T15:38:33.716Z,32.96
2022-08-06T15:41:42.910Z,33.02
2022-08-06T15:44:45.341Z,32.99
2022-08-06T15:47:48.810Z,32.89
2022-08-06T15:51:28.282Z,32.64
2022-08-06T15:54:13.583Z,32.48
2022-08-06T15:57:19.977Z,32.44
2022-08-06T16:00:58.335Z,32.44
2022-08-06T16:04:02.567Z,32.32
2022-08-06T16:07:08.291Z,32.38
2022-08-06T16:10:11.229Z,32.10
2022-08-06T16:13:27.413Z,32.01
2022-08-06T16:16:32.455Z,31.80
2022-08-06T16:19:49.340Z,31.90
2022-08-06T16:22:53.119Z,31.78
2022-08-06T16:26:09.515Z,31.58
2022-08-06T16:29:17.672Z,31.51
2022-08-06T16:32:26.322Z,31.28
2022-08-06T16:35:28.868Z,31.43
2022-08-06T16:38:34.998Z,31.27
2022-08-06T16:41:58.732Z,30.95
2022-08-06T16:45:02.598Z,30.86
2022-08-06T16:48:25.084Z,30.81
2022-08-06T16:52:42.825Z,30.91
2022-08-06T16:54:55.485Z,30.78
2022-08-06T16:58:01.399Z,30.65
2022-08-06T17:02:15.327Z,30.60
2022-08-06T17:04:32.457Z,30.51
2022-08-06T17:07:40.245Z,30.58
2022-08-06T17:10:44.622Z,30.52
2022-08-06T17:14:00.434Z,30.44
2022-08-06T17:17:07.238Z,30.20
2022-08-06T17:20:14.545Z,29.89
2022-08-06T17:23:18.805Z,29.87
2022-08-06T17:26:34.598Z,29.82
2022-08-06T17:29:46.359Z,29.90
2022-08-06T17:32:54.238Z,29.67
2022-08-06T17:36:32.326Z,29.65
2022-08-06T17:39:26.164Z,29.65
2022-08-06T17:42:40.883Z,29.41
2022-08-06T17:45:52.285Z,29.34
2022-08-06T17:49:07.446Z,29.29
2022-08-06T17:52:10.304Z,29.28
2022-08-06T17:55:12.853Z,29.22
2022-08-06T17:58:37.833Z,29.13
2022-08-06T18:01:44.150Z,28.96
2022-08-06T18:04:46.943Z,28.97
2022-08-06T18:08:10.991Z,28.64
2022-08-06T18:11:13.823Z,28.60
2022-08-06T18:14:32.145Z,28.40
2022-08-06T18:17:59.461Z,28.22
2022-08-06T18:20:56.525Z,28.06
2022-08-06T18:24:00.683Z,28.12
2022-08-06T18:27:09.371Z,28.14
2022-08-06T18:30:30.321Z,28.19
2022-08-06T18:33:42.744Z,28.17
2022-08-06T18:36:49.953Z,28.08
2022-08-06T18:40:18.824Z,28.15
2022-08-06T18:43:13.661Z,28.01
2022-08-06T18:46:56.659Z,28.10
2022-08-06T18:49:51.016Z,27.94
2022-08-06T18:52:55.505Z,27.98
2022-08-06T18:56:04.454Z,28.04
2022-08-06T18:59:22.727Z,27.90
2022-08-06T19:02:32.225Z,27.84
2022-08-06T19:05:40.564Z,27.70
2022-08-06T19:08:46.277Z,27.76
2022-08-06T19:11:50.959Z,27.58
2022-08-06T19:14:54.306Z,27.41
2022-08-06T19:18:14.245Z,27.54
2022-08-06T19:21:19.010Z,27.66
2022-08-06T19:24:35.222Z,27.55
2022-08-06T19:28:29.904Z,27.40
2022-08-06T19:31:04.115Z,27.48
2022-08-06T19:34:08.918Z,27.22
2022-08-06T19:37:22.320Z,27.16
2022-08-06T19:40:52.743Z,27.03
2022-08-06T19:44:24.885Z,26.97
2022-08-06T19:47:21.766Z,27.07
2022-08-06T19:50:24.161Z,27.02
2022-08-06T19:53:31.654Z,26.69
2022-08-06T19:56:35.097Z,26.74
2022-08-06T20:00:55.487Z,26.59
2022-08-06T20:03:00.384Z,26.75
2022-08-06T20:06:21.777Z,26.57
2022-08-06T20:09:58.816Z,26.77
2022-08-06T20:12:51.669Z,26.79
2022-08-06T20:15:53.925Z,26.66
2022-08-06T20:18:56.159Z,26.68
2022-08-06T20:21:58.276Z,26.45
2022-08-06T20:25:00.162Z,26.70
2022-08-06T20:29:07.060Z,26.81
2022-08-06T20:31:42.821Z,26.65
2022-08-06T20:34:48.349Z,26.67
2022-08-06T20:37:52.655Z,26.46
2022-08-06T20:41:57.041Z,26.51
2022-08-06T20:44:20.216Z,26.75
2022-08-06T20:47:46.306Z,26.58
2022-08-06T20:50:47.122Z,26.49
2022-08-06T20:53:56.222Z,26.70
2022-08-06T20:57:03.949Z,26.61
2022-08-06T21:00:17.612Z,26.41
2022-08-06T21:05:10.882Z,26.37
2022-08-06T21:06:43.028Z,25.82
2022-08-06T21:09:46.311Z,26.05
2022-08-06T21:12:58.887Z,26.15
2022-08-06T21:16:09.914Z,25.99
2022-08-06T21:19:16.334Z,26.14
2022-08-06T21:22:20.667Z,25.95
2022-08-06T21:25:39.731Z,26.04
2022-08-06T21:28:52.156Z,25.80
2022-08-06T21:31:57.572Z,25.51
2022-08-06T21:34:59.706Z,25.81
2022-08-06T21:38:01.938Z,25.80
2022-08-06T21:41:30.037Z,25.43
2022-08-06T21:44:49.546Z,25.41
2022-08-06T21:47:55.165Z,25.07
2022-08-06T21:50:59.574Z,25.16
2022-08-06T21:54:03.283Z,25.09
2022-08-06T21:57:11.674Z,24.99
2022-08-06T22:00:38.047Z,24.90
2022-08-06T22:04:38.023Z,24.98
2022-08-06T22:07:03.129Z,24.77
2022-08-06T22:10:06.458Z,24.72
2022-08-06T22:13:13.270Z,24.44
2022-08-06T22:16:18.348Z,24.59
2022-08-06T22:19:39.202Z,24.63
2022-08-06T22:22:41.221Z,24.57
2022-08-06T22:25:44.853Z,24.66
2022-08-06T22:28:47.166Z,24.76
2022-08-06T22:31:56.130Z,24.72
2022-08-06T22:34:59.578Z,24.65
2022-08-06T22:38:16.943Z,24.60
2022-08-06T22:41:21.600Z,24.55
2022-08-06T22:45:47.729Z,24.07
2022-08-06T22:48:08.073Z,24.20
2022-08-06T22:51:15.906Z,24.24
2022-08-06T22:54:25.840Z,24.22
2022-08-06T22:57:37.597Z,24.21
2022-08-06T23:00:57.864Z,24.10
2022-08-06T23:04:00.195Z,24.15
2022-08-06T23:07:09.211Z,24.23
2022-08-06T23:10:13.292Z,24.42
2022-08-06T23:13:23.851Z,24.14
2022-08-06T23:16:28.320Z,24.22
2022-08-06T23:19:30.451Z,24.28
2022-08-06T23:22:38.024Z,24.18
2022-08-06T23:25:59.477Z,24.20
2022-08-06T23:29:08.811Z,24.07
2022-08-06T23:32:10.955Z,24.21
2022-08-06T23:35:36.212Z,23.93
2022-08-06T23:38:39.986Z,23.88
2022-08-06T23:42:00.519Z,23.75
2022-08-06T23:45:04.633Z,23.91
2022-08-06T23:48:06.725Z,23.91
2022-08-06T23:51:08.781Z,23.80
2022-08-06T23:54:15.818Z,23.95
2022-08-06T23:57:48.008Z,23.89
